createdAt,value
2018-09-19T00:00:41.574Z,5.23
2018-09-19T00:05:44.690Z,6.80
2018-09-19T00:10:47.815Z,5.30
2018-09-19T00:15:50.932Z,5.50
2018-09-19T00:20:54.035Z,5.43
2018-09-19T00:25:57.148Z,5.50
2018-09-19T00:31:00.280Z,5.67
2018-09-19T00:36:03.392Z,4.87
2018-09-19T00:41:06.608Z,5.30
2018-09-19T00:46:09.691Z,4.90
2018-09-19T00:51:12.813Z,5.57
2018-09-19T00:56:15.887Z,4.93
2018-09-19T01:01:18.974Z,5.33
2018-09-19T01:06:22.067Z,5.70
2018-09-19T01:11:25.195Z,6.70
2018-09-19T01:16:28.361Z,7.90
2018-09-19T01:21:31.431Z,7.50
2018-09-19T01:26:34.555Z,7.63
2018-09-19T01:31:37.650Z,6.93
2018-09-19T01:36:40.746Z,6.07
2018-09-19T01:41:43.834Z,6.57
2018-09-19T01:46:47.105Z,7.40
2018-09-19T01:51:53.860Z,8.87
2018-09-19T01:56:56.967Z,7.30
2018-09-19T02:02:00.107Z,7.23
2018-09-19T02:07:03.225Z,7.30
2018-09-19T02:12:06.323Z,6.30
2018-09-19T02:17:09.429Z,7.60
2018-09-19T02:22:12.537Z,9.53
2018-09-19T02:27:15.683Z,7.53
2018-09-19T02:32:19.014Z,7.40
2018-09-19T02:37:22.113Z,7.10
2018-09-19T02:42:25.228Z,8.50
2018-09-19T02:47:28.335Z,8.03
2018-09-19T02:52:31.439Z,8.00
2018-09-19T02:57:34.560Z,7.93
2018-09-19T03:02:37.654Z,7.20
2018-09-19T03:07:40.770Z,9.47
2018-09-19T03:12:43.868Z,6.30
2018-09-19T03:17:47.090Z,6.47
2018-09-19T03:22:50.070Z,7.73
2018-09-19T03:27:53.158Z,7.70
2018-09-19T03:38:00.676Z,7.33
2018-09-19T03:43:03.779Z,8.60
2018-09-19T03:48:06.870Z,5.50
2018-09-19T03:53:09.952Z,6.20
2018-09-19T03:58:13.089Z,9.23
2018-09-19T04:03:16.150Z,9.10
2018-09-19T04:08:19.255Z,5.97
2018-09-19T04:13:22.356Z,7.63
2018-09-19T04:18:25.455Z,6.53
2018-09-19T04:23:28.654Z,7.77
2018-09-19T04:28:31.763Z,8.60
2018-09-19T04:33:34.849Z,7.80
2018-09-19T04:38:37.995Z,9.30
2018-09-19T04:43:41.067Z,8.87
2018-09-19T04:48:44.235Z,9.23
2018-09-19T04:53:47.336Z,9.47
2018-09-19T04:58:50.461Z,12.07
2018-09-19T05:03:53.596Z,10.07
2018-09-19T05:08:56.974Z,13.60
2018-09-19T05:14:00.092Z,11.60
2018-09-19T05:19:03.209Z,12.57
2018-09-19T05:24:06.328Z,12.43
2018-09-19T05:29:09.440Z,13.00
2018-09-19T05:34:12.531Z,11.30
2018-09-19T05:39:15.639Z,10.60
2018-09-19T05:44:18.771Z,11.87
2018-09-19T05:49:21.867Z,12.20
2018-09-19T05:54:25.036Z,9.43
2018-09-19T05:59:28.226Z,10.37
2018-09-19T06:04:31.355Z,13.37
2018-09-19T06:09:34.458Z,10.00
2018-09-19T06:14:37.578Z,10.93
2018-09-19T06:19:40.678Z,9.57
2018-09-19T06:24:43.781Z,10.20
2018-09-19T06:29:46.935Z,10.80
2018-09-19T06:34:50.057Z,8.33
2018-09-19T06:39:53.211Z,10.60
2018-09-19T06:44:56.285Z,8.47
2018-09-19T06:49:59.449Z,8.30
2018-09-19T06:55:02.560Z,7.80
2018-09-19T07:00:06.405Z,8.63
2018-09-19T07:05:09.510Z,6.33
2018-09-19T07:10:12.638Z,7.60
2018-09-19T07:15:15.878Z,6.40
2018-09-19T07:20:19.008Z,6.47
2018-09-19T07:25:22.165Z,5.70
2018-09-19T07:30:25.201Z,4.83
2018-09-19T07:35:28.367Z,4.30
2018-09-19T07:40:31.510Z,4.47
2018-09-19T07:45:34.607Z,3.97
2018-09-19T07:50:37.711Z,3.90
2018-09-19T07:55:40.811Z,4.00
2018-09-19T08:00:44.025Z,3.60
2018-09-19T08:05:47.040Z,3.70
2018-09-19T08:10:50.350Z,3.37
2018-09-19T08:15:59.879Z,3.80
2018-09-19T08:21:03.081Z,2.70
2018-09-19T08:26:06.293Z,3.83
2018-09-19T08:31:09.415Z,3.00
2018-09-19T08:37:16.275Z,3.20
2018-09-19T08:42:19.372Z,3.03
2018-09-19T08:47:22.476Z,3.30
2018-09-19T08:52:25.652Z,3.23
2018-09-19T08:57:28.760Z,2.60
2018-09-19T09:02:31.905Z,2.20
2018-09-19T09:07:35.022Z,2.47
2018-09-19T09:12:38.156Z,2.20
2018-09-19T09:17:41.247Z,2.70
2018-09-19T09:22:44.464Z,2.50
2018-09-19T09:27:47.538Z,2.20
2018-09-19T09:32:50.646Z,2.60
2018-09-19T09:37:53.735Z,2.53
2018-09-19T09:42:56.837Z,2.80
2018-09-19T09:47:59.966Z,2.47
2018-09-19T09:53:03.060Z,3.43
2018-09-19T09:58:06.233Z,2.53
2018-09-19T10:03:10.278Z,2.20
2018-09-19T10:08:13.378Z,2.93
2018-09-19T10:13:16.487Z,2.20
2018-09-19T10:18:19.604Z,2.43
2018-09-19T10:23:22.707Z,2.47
2018-09-19T10:28:25.790Z,2.00
2018-09-19T10:33:28.904Z,3.03
2018-09-19T10:38:32.013Z,1.90
2018-09-19T10:43:35.134Z,2.40
2018-09-19T10:48:38.239Z,2.63
2018-09-19T10:53:41.347Z,2.43
2018-09-19T10:58:44.465Z,2.00
2018-09-19T11:03:47.591Z,1.70
2018-09-19T11:08:50.730Z,1.90
2018-09-19T11:13:53.851Z,1.80
2018-09-19T11:18:56.955Z,2.00
2018-09-19T11:24:00.080Z,2.37
2018-09-19T11:29:03.183Z,2.00
2018-09-19T11:34:06.293Z,2.00
2018-09-19T11:39:11.343Z,2.37
2018-09-19T11:44:14.429Z,2.67
2018-09-19T11:49:17.504Z,2.73
2018-09-19T11:54:20.587Z,2.00
2018-09-19T11:59:23.682Z,2.93
2018-09-19T12:04:26.758Z,2.60
2018-09-19T12:09:29.841Z,2.60
2018-09-19T12:14:32.928Z,2.80
2018-09-19T12:19:36.046Z,3.57
2018-09-19T12:24:39.144Z,2.47
2018-09-19T12:29:42.218Z,3.03
2018-09-19T12:34:45.305Z,2.50
2018-09-19T12:39:48.381Z,3.73
2018-09-19T12:44:51.471Z,3.73
2018-09-19T12:49:54.558Z,3.47
2018-09-19T12:54:57.651Z,3.20
2018-09-19T13:00:00.731Z,3.43
2018-09-19T13:05:03.814Z,4.20
2018-09-19T13:10:06.907Z,4.17
2018-09-19T13:15:09.984Z,3.20
2018-09-19T13:20:13.066Z,2.90
2018-09-19T13:25:16.147Z,3.50
2018-09-19T13:30:19.247Z,3.17
2018-09-19T13:35:22.352Z,3.90
2018-09-19T13:40:25.447Z,3.37
2018-09-19T13:45:28.551Z,3.60
2018-09-19T13:50:44.476Z,3.07
2018-09-19T13:55:47.565Z,3.90
2018-09-19T14:00:51.140Z,2.90
2018-09-19T14:05:54.228Z,3.30
2018-09-19T14:10:57.303Z,3.30
2018-09-19T14:16:00.378Z,3.60
2018-09-19T14:21:03.456Z,3.80
2018-09-19T14:26:06.594Z,3.90
2018-09-19T14:31:09.698Z,4.10
2018-09-19T14:36:12.776Z,3.30
2018-09-19T14:41:15.855Z,3.37
2018-09-19T14:46:18.943Z,3.80
2018-09-19T14:51:22.015Z,3.33
2018-09-19T14:56:25.094Z,5.00
2018-09-19T15:01:28.219Z,3.03
2018-09-19T15:06:31.328Z,4.07
2018-09-19T15:11:34.417Z,3.33
2018-09-19T15:16:37.542Z,3.43
2018-09-19T15:21:40.680Z,4.30
2018-09-19T15:26:43.856Z,4.20
2018-09-19T15:31:46.984Z,3.23
2018-09-19T15:36:50.265Z,4.20
2018-09-19T15:41:53.374Z,4.40
2018-09-19T15:46:56.535Z,4.30
2018-09-19T15:51:59.642Z,4.90
2018-09-19T15:57:02.745Z,3.50
2018-09-19T16:02:05.854Z,3.80
2018-09-19T16:07:08.954Z,3.60
2018-09-19T16:12:12.056Z,4.17
2018-09-19T16:17:15.171Z,4.03
2018-09-19T16:22:18.271Z,4.20
2018-09-19T16:27:21.396Z,4.10
2018-09-19T16:32:24.506Z,3.60
2018-09-19T16:37:27.614Z,4.60
2018-09-19T16:42:30.702Z,4.20
2018-09-19T16:47:33.808Z,4.13
2018-09-19T16:52:36.884Z,5.43
2018-09-19T16:57:39.999Z,5.20
2018-09-19T17:02:43.096Z,5.17
2018-09-19T17:07:46.232Z,5.03
2018-09-19T17:12:49.347Z,4.50
2018-09-19T17:17:52.466Z,4.97
2018-09-19T17:22:55.605Z,4.63
2018-09-19T17:27:58.803Z,4.50
2018-09-19T17:33:02.015Z,5.60
2018-09-19T17:38:05.301Z,4.97
2018-09-19T17:43:08.390Z,4.30
2018-09-19T17:48:11.503Z,4.80
2018-09-19T17:53:14.620Z,4.50
2018-09-19T17:58:17.774Z,4.33
2018-09-19T18:03:20.887Z,5.03
2018-09-19T18:08:23.992Z,5.57
2018-09-19T18:13:27.072Z,4.97
2018-09-19T18:18:30.268Z,5.30
2018-09-19T18:23:34.335Z,4.90
2018-09-19T18:28:37.447Z,4.40
2018-09-19T18:33:40.581Z,4.70
2018-09-19T18:38:43.678Z,4.93
2018-09-19T18:43:46.846Z,5.50
2018-09-19T18:48:49.943Z,4.63
2018-09-19T18:53:53.080Z,4.33
2018-09-19T18:58:56.261Z,5.20
2018-09-19T19:03:59.355Z,5.10
2018-09-19T19:09:02.482Z,5.00
2018-09-19T19:14:05.826Z,5.63
2018-09-19T19:19:08.935Z,6.23
2018-09-19T19:24:12.048Z,7.00
2018-09-19T19:29:15.164Z,6.80
2018-09-19T19:34:18.323Z,5.90
2018-09-19T19:39:21.444Z,6.57
2018-09-19T19:44:24.862Z,6.00
2018-09-19T19:49:27.983Z,5.40
2018-09-19T19:54:31.094Z,6.77
2018-09-19T19:59:34.200Z,7.03
2018-09-19T20:04:37.320Z,5.80
2018-09-19T20:09:40.476Z,7.30
2018-09-19T20:14:43.575Z,5.40
2018-09-19T20:19:46.741Z,8.07
2018-09-19T20:24:49.846Z,6.23
2018-09-19T20:29:52.981Z,6.63
2018-09-19T20:34:56.063Z,6.03
2018-09-19T20:39:59.161Z,6.60
2018-09-19T20:45:02.311Z,7.30
2018-09-19T20:50:05.526Z,6.20
2018-09-19T20:55:08.651Z,5.53
2018-09-19T21:00:11.784Z,5.03
2018-09-19T21:05:14.924Z,5.70
2018-09-19T21:10:18.034Z,5.63
2018-09-19T21:15:21.276Z,6.33
2018-09-19T21:20:24.388Z,6.73
2018-09-19T21:25:27.521Z,8.70
2018-09-19T21:30:30.675Z,9.20
2018-09-19T21:35:33.771Z,11.87
2018-09-19T21:40:36.876Z,10.27
2018-09-19T21:45:39.982Z,12.13
2018-09-19T21:50:43.106Z,11.47
2018-09-19T21:55:46.235Z,11.93
2018-09-19T22:00:54.801Z,11.93
2018-09-19T22:05:58.096Z,11.10
2018-09-19T22:11:01.227Z,13.00
2018-09-19T22:16:04.333Z,10.63
2018-09-19T22:21:07.444Z,10.00
2018-09-19T22:26:10.645Z,9.33
2018-09-19T22:31:13.782Z,9.23
2018-09-19T22:36:16.910Z,8.60
2018-09-19T22:41:20.578Z,7.93
2018-09-19T22:46:23.727Z,7.53
2018-09-19T22:51:26.944Z,6.97
2018-09-19T22:56:30.052Z,6.70
2018-09-19T23:01:33.243Z,5.80
2018-09-19T23:06:36.376Z,4.80
2018-09-19T23:11:39.491Z,5.03
2018-09-19T23:16:42.655Z,6.17
2018-09-19T23:21:45.762Z,4.93
2018-09-19T23:26:48.881Z,5.60
2018-09-19T23:31:51.987Z,5.47
2018-09-19T23:36:55.096Z,4.50
2018-09-19T23:41:58.211Z,4.77
2018-09-19T23:47:01.320Z,4.40
2018-09-19T23:52:04.422Z,4.63
2018-09-19T23:57:07.528Z,4.33
